createdAt,value
2023-03-26T00:00:50.117Z,3.53
2023-03-26T00:03:39.058Z,2.35
2023-03-26T00:06:36.679Z,3.55
2023-03-26T00:09:24.442Z,3.13
2023-03-26T00:12:12.207Z,2.72
2023-03-26T00:15:00.112Z,2.80
2023-03-26T00:17:48.081Z,2.88
2023-03-26T00:20:35.959Z,2.85
2023-03-26T00:23:24.261Z,2.92
2023-03-26T00:26:12.954Z,3.35
2023-03-26T00:29:00.911Z,4.28
2023-03-26T00:31:49.206Z,3.22
2023-03-26T00:34:37.084Z,3.00
2023-03-26T00:37:27.806Z,3.42
2023-03-26T00:40:15.619Z,3.90
2023-03-26T00:43:10.518Z,2.88
2023-03-26T00:45:58.826Z,3.83
2023-03-26T00:48:47.125Z,2.95
2023-03-26T00:51:35.066Z,2.70
2023-03-26T00:54:22.872Z,2.92
2023-03-26T00:57:12.353Z,2.80
2023-03-26T01:00:12.953Z,3.17
2023-03-26T01:03:04.418Z,4.18
2023-03-26T01:06:02.662Z,2.97
2023-03-26T01:08:52.846Z,3.70
2023-03-26T01:11:40.668Z,2.67
2023-03-26T01:14:29.756Z,3.60
2023-03-26T01:17:18.874Z,2.72
2023-03-26T01:20:20.664Z,3.50
2023-03-26T01:23:08.673Z,3.08
2023-03-26T01:26:10.858Z,3.58
2023-03-26T01:29:03.810Z,2.97
2023-03-26T01:32:09.501Z,3.58
2023-03-26T01:35:29.402Z,3.65
2023-03-26T01:39:04.216Z,2.88
2023-03-26T01:41:58.560Z,3.67
2023-03-26T01:44:57.107Z,3.05
2023-03-26T01:47:46.585Z,3.20
2023-03-26T01:50:34.572Z,3.40
2023-03-26T01:53:22.452Z,3.42
2023-03-26T01:56:34.454Z,3.30
2023-03-26T01:59:37.201Z,3.15
2023-03-26T02:02:45.984Z,3.92
2023-03-26T02:05:56.727Z,3.72
2023-03-26T02:09:04.582Z,2.95
2023-03-26T02:11:52.826Z,3.75
2023-03-26T02:14:43.005Z,4.38
2023-03-26T02:17:32.613Z,3.40
2023-03-26T02:20:21.594Z,4.40
2023-03-26T02:23:10.134Z,3.25
2023-03-26T02:25:57.934Z,4.25
2023-03-26T02:28:46.083Z,3.88
2023-03-26T02:31:33.881Z,3.65
2023-03-26T02:34:21.771Z,4.47
2023-03-26T02:37:10.501Z,4.43
2023-03-26T02:39:58.272Z,4.35
2023-03-26T02:42:47.323Z,3.90
2023-03-26T02:45:35.392Z,4.78
2023-03-26T02:48:23.309Z,4.25
2023-03-26T02:51:11.425Z,5.43
2023-03-26T02:54:00.093Z,4.53
2023-03-26T02:56:47.996Z,3.90
2023-03-26T02:59:36.044Z,4.50
2023-03-26T03:02:24.302Z,4.40
2023-03-26T03:05:12.360Z,4.25
2023-03-26T03:08:00.422Z,4.38
2023-03-26T03:11:04.299Z,4.00
2023-03-26T03:13:53.232Z,4.38
2023-03-26T03:16:41.311Z,4.80
2023-03-26T03:19:29.176Z,3.95
2023-03-26T03:22:17.133Z,4.45
2023-03-26T03:25:08.993Z,4.57
2023-03-26T03:27:56.768Z,3.80
2023-03-26T03:30:44.965Z,4.20
2023-03-26T03:33:32.979Z,4.63
2023-03-26T03:36:23.894Z,3.85
2023-03-26T03:39:11.766Z,4.28
2023-03-26T03:41:59.513Z,4.15
2023-03-26T03:44:47.463Z,3.85
2023-03-26T03:47:35.476Z,4.20
2023-03-26T03:50:23.321Z,4.38
2023-03-26T03:53:15.867Z,4.20
2023-03-26T03:56:10.142Z,4.32
2023-03-26T03:58:58.444Z,4.47
2023-03-26T04:01:48.657Z,4.43
2023-03-26T04:04:37.841Z,4.72
2023-03-26T04:07:27.217Z,4.90
2023-03-26T04:10:16.189Z,4.30
2023-03-26T04:13:04.015Z,5.05
2023-03-26T04:15:51.828Z,4.93
2023-03-26T04:18:39.946Z,4.35
2023-03-26T04:21:30.486Z,3.75
2023-03-26T04:24:18.387Z,4.57
2023-03-26T04:27:13.625Z,5.25
2023-03-26T04:30:03.588Z,4.45
2023-03-26T04:32:51.821Z,4.53
2023-03-26T04:35:41.877Z,5.28
2023-03-26T04:38:35.573Z,4.53
2023-03-26T04:41:26.398Z,5.15
2023-03-26T04:44:17.189Z,4.95
2023-03-26T04:47:05.208Z,5.70
2023-03-26T04:49:53.086Z,5.13
2023-03-26T04:52:42.626Z,4.82
2023-03-26T04:55:39.444Z,5.18
2023-03-26T04:58:32.660Z,5.20
2023-03-26T05:01:21.506Z,4.97
2023-03-26T05:04:09.443Z,4.80
2023-03-26T05:06:59.498Z,5.07
2023-03-26T05:09:47.340Z,5.45
2023-03-26T05:12:35.334Z,5.30
2023-03-26T05:15:23.361Z,5.28
2023-03-26T05:18:11.218Z,4.40
2023-03-26T05:20:59.645Z,5.30
2023-03-26T05:23:47.434Z,5.53
2023-03-26T05:26:36.813Z,5.10
2023-03-26T05:29:24.732Z,5.60
2023-03-26T05:32:15.669Z,5.50
2023-03-26T05:35:03.965Z,5.93
2023-03-26T05:37:51.977Z,5.45
2023-03-26T05:40:39.943Z,5.93
2023-03-26T05:43:28.836Z,4.90
2023-03-26T05:46:20.342Z,4.88
2023-03-26T05:49:08.326Z,5.25
2023-03-26T05:51:56.211Z,5.70
2023-03-26T05:54:44.102Z,5.38
2023-03-26T05:57:32.421Z,4.55
2023-03-26T06:00:20.333Z,4.85
2023-03-26T06:03:12.739Z,5.55
2023-03-26T06:06:00.834Z,4.90
2023-03-26T06:09:01.350Z,5.20
2023-03-26T06:11:50.864Z,5.07
2023-03-26T06:14:38.837Z,4.53
2023-03-26T06:17:26.939Z,6.60
2023-03-26T06:20:17.503Z,5.15
2023-03-26T06:23:06.575Z,5.30
2023-03-26T06:25:55.356Z,5.97
2023-03-26T06:28:43.168Z,4.82
2023-03-26T06:31:34.234Z,4.95
2023-03-26T06:34:22.144Z,5.50
2023-03-26T06:37:10.036Z,4.85
2023-03-26T06:39:57.822Z,5.22
2023-03-26T06:43:08.530Z,5.53
2023-03-26T06:45:56.606Z,5.75
2023-03-26T06:48:44.539Z,5.60
2023-03-26T06:51:32.662Z,5.32
2023-03-26T06:54:20.543Z,5.68
2023-03-26T06:57:08.472Z,5.57
2023-03-26T06:59:56.435Z,5.90
2023-03-26T07:02:44.705Z,5.50
2023-03-26T07:05:32.544Z,6.18
2023-03-26T07:08:20.807Z,5.50
2023-03-26T07:11:10.186Z,5.90
2023-03-26T07:13:59.496Z,5.95
2023-03-26T07:16:47.292Z,5.47
2023-03-26T07:19:35.233Z,5.95
2023-03-26T07:22:25.294Z,7.00
2023-03-26T07:25:14.463Z,6.22
2023-03-26T07:28:24.545Z,6.95
2023-03-26T07:31:29.839Z,7.22
2023-03-26T07:34:52.073Z,5.97
2023-03-26T07:38:23.172Z,7.15
2023-03-26T07:41:55.343Z,6.00
2023-03-26T07:45:03.702Z,5.68
2023-03-26T07:47:53.883Z,7.40
2023-03-26T07:50:42.221Z,7.18
2023-03-26T07:53:30.684Z,6.50
2023-03-26T07:56:29.132Z,7.13
2023-03-26T07:59:41.011Z,7.88
2023-03-26T08:02:49.806Z,8.18
2023-03-26T08:06:01.695Z,6.78
2023-03-26T08:09:42.586Z,6.60
2023-03-26T08:12:55.421Z,7.60
2023-03-26T08:16:08.935Z,7.28
2023-03-26T08:19:17.204Z,6.95
2023-03-26T08:22:26.512Z,8.23
2023-03-26T08:25:33.273Z,8.30
2023-03-26T08:28:27.034Z,8.63
2023-03-26T08:31:19.516Z,8.95
2023-03-26T08:34:12.193Z,8.98
2023-03-26T08:37:00.102Z,9.15
2023-03-26T08:39:54.357Z,10.40
2023-03-26T08:43:16.366Z,7.88
2023-03-26T08:46:58.015Z,8.15
2023-03-26T08:50:25.601Z,7.93
2023-03-26T08:53:50.286Z,8.85
2023-03-26T08:57:00.918Z,8.30
2023-03-26T09:00:24.639Z,8.25
2023-03-26T09:03:35.598Z,7.82
2023-03-26T09:07:07.028Z,8.95
2023-03-26T09:10:46.804Z,9.38
2023-03-26T09:14:07.689Z,6.85
2023-03-26T09:17:59.466Z,8.25
2023-03-26T09:21:17.281Z,7.60
2023-03-26T09:24:37.858Z,7.50
2023-03-26T09:28:04.162Z,8.13
2023-03-26T09:30:57.746Z,6.38
2023-03-26T09:34:13.399Z,6.00
2023-03-26T09:37:56.499Z,4.80
2023-03-26T09:41:06.022Z,4.88
2023-03-26T09:44:27.915Z,4.63
2023-03-26T09:47:31.201Z,4.93
2023-03-26T09:50:50.065Z,4.90
2023-03-26T09:54:26.108Z,4.95
2023-03-26T09:57:59.285Z,4.70
2023-03-26T10:01:13.340Z,4.47
2023-03-26T10:04:28.208Z,4.13
2023-03-26T10:07:49.053Z,5.15
2023-03-26T10:11:03.764Z,4.30
2023-03-26T10:17:52.770Z,4.25
2023-03-26T10:21:07.702Z,4.38
2023-03-26T10:24:23.153Z,4.32
2023-03-26T10:27:44.056Z,3.33
2023-03-26T10:30:40.870Z,4.18
2023-03-26T10:34:08.884Z,4.22
2023-03-26T10:37:31.827Z,3.90
2023-03-26T10:41:00.833Z,3.80
2023-03-26T10:44:07.815Z,3.38
2023-03-26T10:47:19.959Z,4.05
2023-03-26T10:50:28.531Z,3.72
2023-03-26T10:53:43.491Z,5.07
2023-03-26T10:56:49.923Z,4.22
2023-03-26T10:59:37.841Z,4.18
2023-03-26T11:02:35.911Z,4.00
2023-03-26T11:06:00.192Z,4.05
2023-03-26T11:09:07.427Z,4.38
2023-03-26T11:12:38.209Z,3.60
2023-03-26T11:15:41.756Z,4.15
2023-03-26T11:18:42.683Z,3.80
2023-03-26T11:21:49.525Z,3.83
2023-03-26T11:25:06.874Z,3.55
2023-03-26T11:28:05.144Z,4.20
2023-03-26T11:31:27.947Z,4.28
2023-03-26T11:34:21.569Z,4.70
2023-03-26T11:37:20.371Z,5.13
2023-03-26T11:40:25.381Z,4.05
2023-03-26T11:43:14.533Z,2.65
2023-03-26T11:46:13.314Z,2.47
2023-03-26T11:49:09.313Z,3.08
2023-03-26T11:51:57.379Z,3.47
2023-03-26T11:54:48.490Z,3.92
2023-03-26T11:57:42.509Z,3.30
2023-03-26T12:00:30.671Z,3.30
2023-03-26T12:03:20.856Z,3.80
2023-03-26T12:06:25.841Z,3.65
2023-03-26T12:09:20.232Z,3.60
2023-03-26T12:12:12.231Z,3.63
2023-03-26T12:15:01.291Z,2.95
2023-03-26T12:17:56.458Z,2.72
2023-03-26T12:20:45.149Z,2.85
2023-03-26T12:24:00.301Z,2.90
2023-03-26T12:26:50.303Z,2.83
2023-03-26T12:29:38.318Z,2.72
2023-03-26T12:32:45.665Z,2.90
2023-03-26T12:35:38.402Z,2.40
2023-03-26T12:38:37.576Z,2.03
2023-03-26T12:43:40.420Z,1.40
2023-03-26T12:44:58.993Z,1.58
2023-03-26T12:47:59.338Z,2.00
2023-03-26T12:51:40.589Z,2.22
2023-03-26T12:55:02.672Z,1.80
2023-03-26T12:58:38.123Z,1.40
2023-03-26T13:01:53.558Z,1.40
2023-03-26T13:04:43.628Z,1.30
2023-03-26T13:07:39.982Z,1.80
2023-03-26T13:10:52.560Z,1.77
2023-03-26T13:14:24.864Z,1.85
2023-03-26T13:17:37.259Z,1.90
2023-03-26T13:20:51.575Z,1.55
2023-03-26T13:23:51.802Z,1.02
2023-03-26T13:27:11.454Z,0.95
2023-03-26T13:30:20.447Z,1.27
2023-03-26T13:33:58.262Z,1.45
2023-03-26T13:37:12.621Z,0.90
2023-03-26T13:40:37.996Z,1.23
2023-03-26T13:43:58.111Z,0.80
2023-03-26T13:47:31.463Z,1.05
2023-03-26T13:50:28.923Z,1.35
2023-03-26T13:53:37.203Z,0.95
2023-03-26T13:56:43.390Z,0.98
2023-03-26T14:00:23.265Z,1.10
2023-03-26T14:03:24.758Z,1.23
2023-03-26T14:07:06.424Z,0.80
2023-03-26T14:10:02.419Z,0.80
2023-03-26T14:13:05.764Z,0.90
2023-03-26T14:16:12.604Z,1.05
2023-03-26T14:20:05.316Z,0.80
2023-03-26T14:23:30.524Z,0.93
2023-03-26T14:27:05.687Z,1.00
2023-03-26T14:30:15.981Z,1.30
2023-03-26T14:33:40.627Z,0.95
2023-03-26T14:37:27.038Z,1.27
2023-03-26T14:41:05.566Z,0.95
2023-03-26T14:44:20.689Z,1.10
2023-03-26T14:47:22.955Z,1.25
2023-03-26T14:50:26.607Z,1.00
2023-03-26T14:53:36.431Z,1.00
2023-03-26T14:56:52.610Z,1.38
2023-03-26T15:00:06.088Z,1.10
2023-03-26T15:03:12.617Z,1.40
2023-03-26T15:06:38.437Z,1.02
2023-03-26T15:10:26.040Z,1.38
2023-03-26T15:13:59.775Z,1.20
2023-03-26T15:17:41.186Z,1.50
2023-03-26T15:21:37.695Z,1.67
2023-03-26T15:24:46.479Z,1.95
2023-03-26T15:28:25.347Z,1.60
2023-03-26T15:31:31.307Z,1.40
2023-03-26T15:34:58.469Z,1.55
2023-03-26T15:38:35.602Z,1.10
2023-03-26T15:41:34.396Z,1.70
2023-03-26T15:45:13.011Z,0.70
2023-03-26T15:48:13.448Z,1.10
2023-03-26T15:51:26.038Z,1.20
2023-03-26T15:54:57.525Z,1.45
2023-03-26T15:58:01.503Z,1.00
2023-03-26T16:01:20.767Z,0.80
2023-03-26T16:04:36.072Z,1.02
2023-03-26T16:07:48.238Z,1.58
2023-03-26T16:10:58.503Z,1.10
2023-03-26T16:14:10.506Z,1.40
2023-03-26T16:17:01.060Z,1.58
2023-03-26T16:20:14.260Z,1.50
2023-03-26T16:23:06.346Z,1.10
2023-03-26T16:26:09.137Z,1.27
2023-03-26T16:29:26.890Z,1.40
2023-03-26T16:32:28.818Z,1.38
2023-03-26T16:35:17.090Z,1.08
2023-03-26T16:38:16.293Z,0.98
2023-03-26T16:41:20.214Z,1.15
2023-03-26T16:44:37.194Z,1.27
2023-03-26T16:47:44.979Z,1.10
2023-03-26T16:51:17.300Z,1.13
2023-03-26T16:54:33.258Z,1.23
2023-03-26T16:57:28.221Z,1.30
2023-03-26T17:00:44.257Z,1.50
2023-03-26T17:03:56.485Z,1.70
2023-03-26T17:07:03.635Z,1.40
2023-03-26T17:10:24.206Z,1.80
2023-03-26T17:13:17.129Z,1.52
2023-03-26T17:16:23.602Z,1.55
2023-03-26T17:19:45.942Z,1.65
2023-03-26T17:22:50.544Z,1.30
2023-03-26T17:26:04.971Z,1.80
2023-03-26T17:29:08.046Z,1.80
2023-03-26T17:32:12.782Z,1.83
2023-03-26T17:35:04.436Z,2.58
2023-03-26T17:37:53.406Z,2.67
2023-03-26T17:40:48.469Z,2.30
2023-03-26T17:43:52.958Z,2.70
2023-03-26T17:46:48.893Z,3.10
2023-03-26T17:49:38.827Z,4.60
2023-03-26T17:52:48.714Z,4.60
2023-03-26T17:55:46.401Z,5.90
2023-03-26T17:58:37.977Z,4.53
2023-03-26T18:01:42.718Z,2.65
2023-03-26T18:04:44.345Z,2.38
2023-03-26T18:08:02.832Z,1.40
2023-03-26T18:11:08.573Z,1.60
2023-03-26T18:14:24.979Z,1.13
2023-03-26T18:17:13.120Z,1.40
2023-03-26T18:20:07.173Z,1.92
2023-03-26T18:25:50.048Z,1.70
2023-03-26T18:28:45.469Z,1.58
2023-03-26T18:31:33.686Z,1.33
2023-03-26T18:34:22.513Z,1.42
2023-03-26T18:37:21.483Z,2.22
2023-03-26T18:40:19.017Z,1.58
2023-03-26T18:43:22.222Z,1.30
2023-03-26T18:46:23.200Z,1.42
2023-03-26T18:49:16.567Z,1.27
2023-03-26T18:52:04.780Z,1.65
2023-03-26T18:54:54.851Z,2.00
2023-03-26T18:57:43.546Z,2.17
2023-03-26T19:00:32.584Z,2.00
2023-03-26T19:03:24.282Z,1.85
2023-03-26T19:06:15.147Z,1.90
2023-03-26T19:09:23.750Z,2.00
2023-03-26T19:12:19.176Z,2.08
2023-03-26T19:15:16.511Z,1.90
2023-03-26T19:18:09.795Z,2.30
2023-03-26T19:21:01.012Z,2.30
2023-03-26T19:23:50.040Z,1.80
2023-03-26T19:26:37.991Z,2.70
2023-03-26T19:29:33.271Z,2.20
2023-03-26T19:32:34.694Z,2.28
2023-03-26T19:35:24.366Z,2.30
2023-03-26T19:38:26.173Z,1.98
2023-03-26T19:41:23.052Z,2.38
2023-03-26T19:44:27.571Z,2.70
2023-03-26T19:47:26.799Z,2.47
2023-03-26T19:50:29.103Z,2.42
2023-03-26T19:53:34.730Z,2.60
2023-03-26T19:56:23.048Z,2.13
2023-03-26T19:59:11.773Z,2.25
2023-03-26T20:01:59.861Z,1.75
2023-03-26T20:04:47.971Z,2.00
2023-03-26T20:07:39.395Z,2.13
2023-03-26T20:10:28.356Z,2.13
2023-03-26T20:13:18.115Z,2.72
2023-03-26T20:16:28.465Z,3.00
2023-03-26T20:19:16.770Z,3.65
2023-03-26T20:22:12.763Z,4.03
2023-03-26T20:28:10.379Z,2.58
2023-03-26T20:30:58.408Z,2.13
2023-03-26T20:33:47.952Z,1.98
2023-03-26T20:36:36.840Z,1.83
2023-03-26T20:39:25.576Z,1.80
2023-03-26T20:42:15.815Z,1.40
2023-03-26T20:45:21.552Z,1.48
2023-03-26T20:48:12.836Z,1.55
2023-03-26T20:51:05.070Z,1.60
2023-03-26T20:53:53.390Z,1.40
2023-03-26T20:56:45.864Z,1.40
2023-03-26T20:59:35.005Z,1.63
2023-03-26T21:02:23.753Z,1.17
2023-03-26T21:05:15.399Z,1.23
2023-03-26T21:08:03.847Z,1.30
2023-03-26T21:10:52.094Z,1.08
2023-03-26T21:13:47.061Z,1.30
2023-03-26T21:16:37.498Z,1.63
2023-03-26T21:19:26.216Z,1.33
2023-03-26T21:22:46.355Z,1.40
2023-03-26T21:26:15.951Z,1.58
2023-03-26T21:29:07.210Z,1.50
2023-03-26T21:31:55.411Z,1.60
2023-03-26T21:34:55.702Z,2.05
2023-03-26T21:37:48.730Z,2.00
2023-03-26T21:40:39.015Z,1.75
2023-03-26T21:43:28.405Z,2.30
2023-03-26T21:46:16.840Z,1.80
2023-03-26T21:49:05.342Z,2.03
2023-03-26T21:51:53.784Z,1.80
2023-03-26T21:54:43.112Z,1.90
2023-03-26T21:58:23.963Z,1.90
2023-03-26T22:01:26.382Z,2.03
2023-03-26T22:04:28.871Z,2.17
2023-03-26T22:07:31.989Z,1.70
2023-03-26T22:10:20.551Z,2.10
2023-03-26T22:13:08.591Z,1.88
2023-03-26T22:15:57.204Z,2.10
2023-03-26T22:18:45.046Z,2.10
2023-03-26T22:21:33.940Z,2.42
2023-03-26T22:24:22.066Z,2.97
2023-03-26T22:27:12.865Z,3.22
2023-03-26T22:30:01.186Z,2.95
2023-03-26T22:32:50.297Z,3.08
2023-03-26T22:35:41.265Z,3.08
2023-03-26T22:38:29.334Z,3.38
2023-03-26T22:41:17.220Z,3.53
2023-03-26T22:44:19.030Z,3.30
2023-03-26T22:47:09.494Z,3.25
2023-03-26T22:49:57.603Z,3.67
2023-03-26T22:52:46.483Z,3.00
2023-03-26T22:55:34.371Z,2.70
2023-03-26T22:58:22.642Z,3.20
2023-03-26T23:01:22.912Z,2.88
2023-03-26T23:04:10.881Z,3.70
2023-03-26T23:06:59.837Z,3.97
2023-03-26T23:09:47.786Z,4.60
2023-03-26T23:12:35.847Z,4.93
2023-03-26T23:15:25.873Z,4.35
2023-03-26T23:18:13.643Z,4.90
2023-03-26T23:21:01.724Z,4.72
2023-03-26T23:23:52.256Z,5.45
2023-03-26T23:26:47.971Z,5.50
2023-03-26T23:29:38.306Z,6.07
2023-03-26T23:32:26.191Z,6.43
2023-03-26T23:35:14.204Z,6.32
2023-03-26T23:38:02.325Z,6.55
2023-03-26T23:40:52.566Z,6.78
2023-03-26T23:43:53.424Z,6.10
2023-03-26T23:46:44.224Z,6.78
2023-03-26T23:49:32.091Z,8.32
2023-03-26T23:52:20.055Z,7.13
2023-03-26T23:55:08.396Z,7.65
2023-03-26T23:57:56.246Z,7.18
